Time;durP1;ratioP1;P1;durP2;ratioP2;P2;SDS_P1;SDS_P2;PMS_P1;PMS_P2;Temp;Humidity;BMP_temperature;BMP_pressure;BME280_temperature;BME280_humidity;BME280_pressure;Samples;Min_cycle;Max_cycle;Signal;HPM_P1;HPM_P2
2023/09/19 00:00:01;;;;;;;2.40;0.80;;;;;;;18.64;100.00;100086.53;5033425;28;20439;-70
2023/09/19 00:02:29;;;;;;;2.50;0.97;;;;;;;18.64;100.00;100098.31;5045197;22;20581;-70
2023/09/19 00:04:55;;;;;;;2.10;0.60;;;;;;;18.64;100.00;100098.31;5023326;28;20447;-69
2023/09/19 00:07:22;;;;;;;2.40;0.60;;;;;;;18.64;100.00;100092.81;5038604;28;20467;-69
2023/09/19 00:09:49;;;;;;;2.50;0.70;;;;;;;18.63;100.00;100090.41;5042732;28;20448;-69
2023/09/19 00:12:16;;;;;;;2.63;0.93;;;;;;;18.66;100.00;100086.94;5042423;28;20451;-69
2023/09/19 00:14:42;;;;;;;2.73;0.93;;;;;;;18.64;100.00;100086.53;5043885;28;20513;-69
2023/09/19 00:17:10;;;;;;;2.40;0.80;;;;;;;18.64;100.00;100087.34;5043825;28;20490;-69
2023/09/19 00:19:37;;;;;;;2.40;0.90;;;;;;;18.66;100.00;100089.69;5041933;28;20439;-69
2023/09/19 00:22:04;;;;;;;2.70;0.97;;;;;;;18.63;100.00;100080.22;5042221;28;20478;-69
2023/09/19 00:24:31;;;;;;;2.10;0.70;;;;;;;18.57;100.00;100080.94;5041874;28;20534;-69
2023/09/19 00:26:58;;;;;;;2.10;0.63;;;;;;;18.56;100.00;100079.34;5044917;28;20466;-69
2023/09/19 00:29:28;;;;;;;2.50;0.70;;;;;;;18.59;100.00;100075.84;5042720;28;20474;-69
2023/09/19 00:31:56;;;;;;;2.47;0.83;;;;;;;18.57;100.00;100070.75;5042660;28;20442;-69
2023/09/19 00:34:24;;;;;;;2.30;0.90;;;;;;;18.59;100.00;100079.41;5042909;28;20521;-69
2023/09/19 00:36:52;;;;;;;2.30;0.80;;;;;;;18.56;100.00;100079.34;5042515;28;20888;-69
2023/09/19 00:39:20;;;;;;;2.73;0.83;;;;;;;18.53;100.00;100080.88;5043268;28;20450;-69
2023/09/19 00:41:47;;;;;;;2.73;0.90;;;;;;;18.53;100.00;100085.56;5041712;28;20499;-69
2023/09/19 00:44:15;;;;;;;2.30;0.67;;;;;;;18.52;100.00;100090.25;5041902;28;20439;-69
2023/09/19 00:46:43;;;;;;;2.10;0.60;;;;;;;18.49;100.00;100087.44;5041724;28;20470;-69
2023/09/19 00:49:10;;;;;;;2.30;0.73;;;;;;;18.48;100.00;100092.16;5042072;28;20943;-69
2023/09/19 00:51:45;;;;;;;2.67;0.70;;;;;;;18.50;100.00;100097.25;5042988;28;20475;-69
2023/09/19 00:54:13;;;;;;;2.23;0.70;;;;;;;18.49;100.00;100099.22;5043063;28;20561;-69
2023/09/19 00:56:40;;;;;;;2.20;0.70;;;;;;;18.49;100.00;100095.69;5042736;28;20588;-69
2023/09/19 00:59:07;;;;;;;3.10;1.00;;;;;;;18.50;100.00;100097.25;5041963;28;20539;-70
2023/09/19 01:01:33;;;;;;;2.33;0.80;;;;;;;18.49;100.00;100087.44;5042806;28;20435;-70
2023/09/19 01:04:00;;;;;;;2.40;0.97;;;;;;;18.49;100.00;100098.44;5037777;28;20855;-68
2023/09/19 01:06:27;;;;;;;3.13;0.87;;;;;;;18.53;100.00;100094.56;5032546;28;20497;-67
2023/09/19 01:08:55;;;;;;;2.00;0.53;;;;;;;18.56;100.00;100095.81;5033767;28;20442;-72
2023/09/19 01:11:29;;;;;;;2.70;1.00;;;;;;;18.56;100.00;100098.56;5038338;28;20493;-68
2023/09/19 01:14:03;;;;;;;2.20;0.60;;;;;;;18.56;100.00;100095.81;5046641;28;20477;-68
2023/09/19 01:16:39;;;;;;;2.27;0.87;;;;;;;18.59;100.00;100090.38;5046403;28;20459;-68
2023/09/19 01:19:33;;;;;;;2.40;0.90;;;;;;;18.66;100.00;100095.97;5045629;28;20429;-69
2023/09/19 01:22:11;;;;;;;2.10;0.70;;;;;;;18.63;100.00;100101.41;5045891;28;20454;-69
2023/09/19 01:25:05;;;;;;;2.23;0.60;;;;;;;18.57;100.00;100103.66;5045712;28;20427;-69
2023/09/19 01:27:54;;;;;;;2.50;0.80;;;;;;;18.54;100.00;100106.34;5046738;28;20478;-69
2023/09/19 01:30:29;;;;;;;2.87;1.00;;;;;;;18.53;100.00;100099.28;5046412;28;20423;-68
2023/09/19 01:32:57;;;;;;;2.30;0.70;;;;;;;18.56;100.00;100112.28;5046325;28;20422;-68
2023/09/19 01:35:24;;;;;;;2.17;0.70;;;;;;;18.59;100.00;100106.03;5045854;28;20479;-68
2023/09/19 01:37:50;;;;;;;2.50;0.90;;;;;;;18.59;100.00;100103.28;5045881;28;20958;-68
2023/09/19 01:40:22;;;;;;;2.10;0.70;;;;;;;18.56;100.00;100112.28;5046445;28;20431;-68
2023/09/19 01:43:00;;;;;;;2.17;0.67;;;;;;;18.47;100.00;100117.22;5046960;28;20415;-68
2023/09/19 01:45:40;;;;;;;2.43;0.60;;;;;;;18.47;100.00;100109.78;5045844;28;20844;-68
2023/09/19 01:48:20;;;;;;;4.20;0.90;;;;;;;18.45;100.00;100108.53;5045573;28;20434;-68
2023/09/19 01:50:56;;;;;;;2.27;0.63;;;;;;;18.49;100.00;100106.66;5046188;28;20450;-68
2023/09/19 01:53:28;;;;;;;2.10;0.60;;;;;;;18.44;100.00;100104.22;5047339;28;20514;-68
2023/09/19 01:55:56;;;;;;;2.93;0.90;;;;;;;18.41;100.00;100112.00;5046691;28;20494;-69
2023/09/19 01:58:31;;;;;;;2.30;0.80;;;;;;;18.35;100.00;100108.00;5046385;28;20566;-69
2023/09/19 02:01:01;;;;;;;2.00;0.40;;;;;;;18.22;100.00;100114.81;5046077;28;20431;-69
2023/09/19 02:03:28;;;;;;;2.20;0.60;;;;;;;18.22;100.00;100117.53;5046111;28;20455;-69
2023/09/19 02:05:55;;;;;;;2.67;0.87;;;;;;;18.18;100.00;100130.41;5046218;28;20966;-69
2023/09/19 02:08:24;;;;;;;2.20;0.53;;;;;;;18.16;100.00;100129.97;5045021;28;20471;-68
2023/09/19 02:10:52;;;;;;;2.20;0.50;;;;;;;18.17;100.00;100123.34;5042707;28;20446;-68
2023/09/19 02:13:20;;;;;;;2.00;0.50;;;;;;;18.14;100.00;100129.53;5042291;28;20451;-69
2023/09/19 02:15:47;;;;;;;2.03;0.60;;;;;;;18.10;100.00;100128.66;5041115;28;20585;-70
2023/09/19 02:18:15;;;;;;;2.20;0.70;;;;;;;18.05;100.00;100129.75;5036889;28;20526;-68
2023/09/19 02:20:42;;;;;;;2.60;0.90;;;;;;;18.01;100.00;100131.63;5036999;28;20927;-69
2023/09/19 02:23:10;;;;;;;2.30;0.70;;;;;;;18.02;100.00;100126.97;5038059;28;20475;-69
2023/09/19 02:25:37;;;;;;;2.30;0.73;;;;;;;18.00;100.00;100129.28;5043187;28;20526;-70
2023/09/19 02:28:05;;;;;;;1.90;0.50;;;;;;;17.95;100.00;100129.56;5042653;28;20454;-69
2023/09/19 02:30:32;;;;;;;2.50;0.73;;;;;;;17.99;100.00;100139.44;5043083;28;20439;-69
2023/09/19 02:33:01;;;;;;;2.30;0.90;;;;;;;18.00;100.00;100134.75;5043841;28;20510;-69
2023/09/19 02:35:32;;;;;;;2.20;0.83;;;;;;;17.96;100.00;100142.91;5043065;28;20560;-69
2023/09/19 02:37:59;;;;;;;2.13;0.70;;;;;;;17.94;100.00;100145.22;5042962;28;20474;-70
2023/09/19 02:40:27;;;;;;;2.63;0.90;;;;;;;17.86;100.00;100152.50;5042739;28;20998;-70
2023/09/19 02:42:56;;;;;;;2.43;0.70;;;;;;;17.86;100.00;100147.03;5043579;28;20432;-71
2023/09/19 02:45:23;;;;;;;2.10;0.70;;;;;;;17.86;100.00;100149.75;5043496;28;20445;-70
2023/09/19 02:47:50;;;;;;;2.00;0.50;;;;;;;17.86;100.00;100149.75;5041360;28;20485;-70
2023/09/19 02:50:18;;;;;;;2.20;0.60;;;;;;;17.82;100.00;100143.41;5039472;28;20446;-71
2023/09/19 02:52:48;;;;;;;3.60;1.07;;;;;;;17.81;100.00;100143.78;5040972;28;20832;-71
2023/09/19 02:55:17;;;;;;;2.53;1.00;;;;;;;17.85;100.00;100159.13;5040888;28;20471;-71
2023/09/19 02:57:47;;;;;;;3.13;1.00;;;;;;;17.76;100.00;100164.03;5041435;28;20590;-71
2023/09/19 03:00:15;;;;;;;2.27;0.70;;;;;;;17.75;100.00;100167.94;5041443;28;20443;-71
2023/09/19 03:02:42;;;;;;;2.93;1.10;;;;;;;17.67;100.00;100166.16;5041320;28;20458;-71
2023/09/19 03:05:11;;;;;;;3.17;1.00;;;;;;;17.68;100.00;100170.50;5041500;28;20510;-71
2023/09/19 03:07:38;;;;;;;2.83;0.90;;;;;;;17.70;100.00;100170.13;5040796;28;20459;-71
2023/09/19 03:10:08;;;;;;;2.90;1.00;;;;;;;17.69;100.00;100168.53;5040863;28;20443;-71
2023/09/19 03:12:35;;;;;;;4.53;1.03;;;;;;;17.69;100.00;100182.25;5041281;28;20431;-71
2023/09/19 03:15:02;;;;;;;2.40;0.73;;;;;;;17.68;100.00;100180.66;5040037;28;20998;-69
2023/09/19 03:17:28;;;;;;;2.40;0.80;;;;;;;17.68;100.00;100183.41;5042734;28;20463;-70
2023/09/19 03:19:55;;;;;;;2.13;0.70;;;;;;;17.72;100.00;100182.31;5042246;28;21003;-70
2023/09/19 03:22:31;;;;;;;3.60;1.00;;;;;;;17.75;100.00;100189.84;5042493;28;20530;-70
2023/09/19 03:25:11;;;;;;;2.70;0.80;;;;;;;17.73;100.00;100186.63;5042305;28;20426;-70
2023/09/19 03:27:38;;;;;;;2.37;0.90;;;;;;;17.75;100.00;100200.00;5040436;28;20928;-70
2023/09/19 03:30:08;;;;;;;2.60;0.93;;;;;;;17.69;100.00;100196.72;5039980;28;20447;-70
2023/09/19 03:32:35;;;;;;;2.20;0.80;;;;;;;17.67;100.00;100193.56;5053808;22;20494;-70
2023/09/19 03:35:05;;;;;;;2.40;0.70;;;;;;;17.68;100.00;100200.63;5040117;28;21072;-70
2023/09/19 03:37:32;;;;;;;2.10;0.50;;;;;;;17.67;100.00;100201.78;5041472;28;20467;-70
2023/09/19 03:39:59;;;;;;;4.93;0.80;;;;;;;17.69;100.00;100213.16;5041504;28;20453;-70
2023/09/19 03:42:27;;;;;;;1.90;0.50;;;;;;;17.64;100.00;100211.50;5041953;28;20469;-70
2023/09/19 03:44:54;;;;;;;2.40;0.70;;;;;;;17.63;100.00;100214.59;5043224;28;20494;-70
2023/09/19 03:47:21;;;;;;;3.40;0.70;;;;;;;17.65;100.00;100212.28;5042883;28;20466;-70
2023/09/19 03:49:48;;;;;;;2.30;0.70;;;;;;;17.63;100.00;100226.34;5042517;28;20451;-70
2023/09/19 03:52:15;;;;;;;2.40;0.70;;;;;;;17.64;100.00;100211.50;5043285;28;20451;-70
2023/09/19 03:54:43;;;;;;;2.63;0.80;;;;;;;17.56;100.00;100217.97;5042740;28;20483;-69
2023/09/19 03:57:09;;;;;;;5.70;0.83;;;;;;;17.62;100.00;100222.03;5043284;28;20505;-70
2023/09/19 03:59:37;;;;;;;2.23;0.80;;;;;;;17.58;100.00;100223.88;5043086;28;20934;-69
2023/09/19 04:02:11;;;;;;;3.37;1.00;;;;;;;17.56;100.00;100217.97;5044561;28;20443;-69
2023/09/19 04:04:38;;;;;;;2.20;0.67;;;;;;;17.58;100.00;100228.59;5043151;28;20459;-69
2023/09/19 04:07:04;;;;;;;2.20;0.60;;;;;;;17.57;100.00;100218.75;5042516;28;20471;-69
2023/09/19 04:09:31;;;;;;;2.20;0.60;;;;;;;17.51;100.00;100228.41;5042682;28;20542;-69
2023/09/19 04:11:58;;;;;;;2.10;0.60;;;;;;;17.44;100.00;100225.50;5042951;28;20796;-70
2023/09/19 04:14:24;;;;;;;2.23;0.67;;;;;;;17.45;99.41;100229.84;5043073;28;20478;-70
2023/09/19 04:16:53;;;;;;;2.03;0.57;;;;;;;17.50;99.26;100232.31;5041596;28;20562;-70
2023/09/19 04:19:21;;;;;;;2.20;0.70;;;;;;;17.46;99.30;100232.22;5042371;28;20475;-70
2023/09/19 04:21:47;;;;;;;2.10;0.50;;;;;;;17.48;99.25;100237.31;5042211;28;21038;-70
2023/09/19 04:24:14;;;;;;;2.60;0.70;;;;;;;17.43;99.22;100226.66;5048398;28;20439;-70
2023/09/19 04:26:41;;;;;;;2.60;1.00;;;;;;;17.42;98.80;100236.81;5053829;28;20550;-70
2023/09/19 04:29:10;;;;;;;2.13;0.67;;;;;;;17.43;97.89;100243.88;5050177;28;20473;-70
2023/09/19 04:31:40;;;;;;;2.40;0.70;;;;;;;17.38;98.62;100247.66;5045560;28;20459;-70
2023/09/19 04:34:08;;;;;;;2.97;1.23;;;;;;;17.34;97.01;100256.94;5044244;28;20451;-70
2023/09/19 04:36:36;;;;;;;2.27;0.77;;;;;;;17.33;96.70;100256.16;5044240;28;20518;-70
2023/09/19 04:39:06;;;;;;;2.30;0.60;;;;;;;17.27;98.34;100252.13;5042591;28;20439;-70
2023/09/19 04:41:32;;;;;;;2.53;0.70;;;;;;;17.25;98.56;100259.06;5053457;28;20435;-70
2023/09/19 04:44:01;;;;;;;2.20;0.87;;;;;;;17.25;97.52;100259.88;5054624;28;20451;-70
2023/09/19 04:46:27;;;;;;;2.20;0.70;;;;;;;17.23;97.94;100261.38;5049307;28;20529;-70
2023/09/19 04:48:54;;;;;;;2.80;1.00;;;;;;;17.26;98.45;100257.94;5045068;28;20482;-70
2023/09/19 04:51:23;;;;;;;4.27;0.97;;;;;;;17.21;99.02;100267.19;5044459;28;20451;-70
2023/09/19 04:53:50;;;;;;;2.00;0.60;;;;;;;17.16;98.84;100264.72;5045892;28;20474;-70
2023/09/19 04:56:16;;;;;;;2.33;0.90;;;;;;;17.11;99.32;100265.00;5043192;28;20523;-70
2023/09/19 04:58:43;;;;;;;2.67;0.70;;;;;;;17.09;99.72;100272.78;5044909;28;20457;-70
2023/09/19 05:01:12;;;;;;;2.17;0.73;;;;;;;17.07;98.72;100272.31;5043545;28;20442;-69
2023/09/19 05:03:39;;;;;;;3.47;0.73;;;;;;;17.11;98.27;100275.94;5045294;28;20458;-69
2023/09/19 05:06:06;;;;;;;2.00;0.60;;;;;;;17.12;99.10;100274.78;5046131;28;20463;-70
2023/09/19 05:08:34;;;;;;;3.27;1.03;;;;;;;17.14;99.34;100284.25;5044829;28;20439;-70
2023/09/19 05:11:02;;;;;;;2.87;1.00;;;;;;;17.11;98.84;100284.94;5044216;28;21026;-70
2023/09/19 05:13:30;;;;;;;2.10;0.67;;;;;;;17.10;99.10;100290.78;5044308;28;20802;-70
2023/09/19 05:16:01;;;;;;;2.20;0.70;;;;;;;17.02;98.92;100289.00;5044807;28;20483;-70
2023/09/19 05:18:28;;;;;;;2.10;0.60;;;;;;;16.97;99.21;100283.81;5044732;28;20485;-70
2023/09/19 05:20:54;;;;;;;2.27;0.80;;;;;;;16.98;99.30;100291.66;5044090;28;21014;-70
2023/09/19 05:23:21;;;;;;;2.83;0.87;;;;;;;16.98;100.00;100288.13;5044920;28;20877;-70
2023/09/19 05:25:49;;;;;;;2.10;0.70;;;;;;;16.96;100.00;100290.44;5044413;28;20470;-70
2023/09/19 05:28:16;;;;;;;2.97;1.00;;;;;;;16.92;100.00;100290.31;5038102;28;20473;-68
2023/09/19 05:30:43;;;;;;;2.30;0.80;;;;;;;16.87;100.00;100302.31;5038037;28;20434;-70
2023/09/19 05:33:10;;;;;;;2.10;0.60;;;;;;;16.89;100.00;100302.75;5044965;28;20447;-72
2023/09/19 05:35:39;;;;;;;2.40;0.70;;;;;;;16.86;100.00;100299.91;5046768;28;20918;-71
2023/09/19 05:38:08;;;;;;;3.17;1.07;;;;;;;16.78;100.00;100307.16;5045881;28;20439;-71
2023/09/19 05:40:35;;;;;;;3.43;1.10;;;;;;;16.82;100.00;100312.69;5043138;28;20478;-72
2023/09/19 05:43:05;;;;;;;3.63;0.97;;;;;;;16.80;100.00;100315.78;5044253;28;20533;-70
2023/09/19 05:45:32;;;;;;;2.00;0.50;;;;;;;16.80;100.00;100317.75;5045713;28;20447;-70
2023/09/19 05:48:09;;;;;;;2.40;0.77;;;;;;;16.80;100.00;100321.28;5046097;28;20455;-70
2023/09/19 05:50:36;;;;;;;3.60;0.80;;;;;;;16.80;100.00;100325.94;5045875;28;20431;-69
2023/09/19 05:53:04;;;;;;;2.13;0.60;;;;;;;16.77;100.00;100340.31;5046880;28;20451;-69
2023/09/19 05:55:30;;;;;;;2.33;0.80;;;;;;;16.80;100.00;100343.16;5045013;28;20507;-69
2023/09/19 05:57:57;;;;;;;2.10;0.50;;;;;;;16.83;100.00;100342.47;5045004;28;20490;-69
2023/09/19 06:00:27;;;;;;;2.20;0.70;;;;;;;16.86;100.00;100347.22;5045866;28;20538;-69
2023/09/19 06:02:54;;;;;;;2.40;0.77;;;;;;;16.87;100.00;100356.25;5046713;28;20445;-69
2023/09/19 06:05:21;;;;;;;2.10;0.50;;;;;;;16.93;100.00;100362.25;5045865;28;20450;-69
2023/09/19 06:07:48;;;;;;;2.10;0.50;;;;;;;16.93;100.00;100365.78;5043684;28;20498;-69
2023/09/19 06:10:15;;;;;;;2.27;0.67;;;;;;;16.97;100.00;100360.41;5042337;28;20435;-70
2023/09/19 06:12:43;;;;;;;3.00;1.33;;;;;;;17.09;98.71;100368.56;5037700;28;20486;-68
2023/09/19 06:15:14;;;;;;;3.10;0.67;;;;;;;17.11;97.67;100364.31;5040518;28;20453;-71
2023/09/19 06:17:43;;;;;;;2.50;0.90;;;;;;;17.21;99.24;100365.75;5042968;28;20593;-70
2023/09/19 06:20:14;;;;;;;2.20;0.60;;;;;;;17.26;98.36;100370.97;5043562;28;20507;-71
2023/09/19 06:22:42;;;;;;;2.03;0.50;;;;;;;17.33;98.79;100371.16;5038171;28;20771;-72
2023/09/19 06:25:11;;;;;;;2.00;0.60;;;;;;;17.46;98.09;100369.13;5040610;28;20452;-70
2023/09/19 06:27:39;;;;;;;2.40;0.77;;;;;;;17.53;97.33;100373.97;5042756;28;20502;-70
2023/09/19 06:30:08;;;;;;;2.30;0.90;;;;;;;17.64;96.32;100372.31;5044673;28;20482;-69
2023/09/19 06:32:35;;;;;;;2.53;0.80;;;;;;;17.74;95.79;100373.75;5044153;28;20474;-70
2023/09/19 06:35:07;;;;;;;2.97;0.77;;;;;;;17.84;94.72;100378.69;5046012;28;20498;-69
2023/09/19 06:37:34;;;;;;;2.33;0.80;;;;;;;17.96;92.79;100383.28;5044660;28;20505;-71
2023/09/19 06:40:01;;;;;;;2.97;0.90;;;;;;;18.06;92.88;100382.72;5045933;28;20511;-69
2023/09/19 06:42:28;;;;;;;2.30;0.60;;;;;;;18.13;94.06;100388.38;5044241;28;20497;-69
2023/09/19 06:44:54;;;;;;;2.90;1.20;;;;;;;18.30;91.51;100396.22;5040901;28;20463;-68
2023/09/19 06:47:25;;;;;;;2.80;0.93;;;;;;;18.43;89.94;100379.66;5035737;28;20459;-69
2023/09/19 06:49:52;;;;;;;2.63;0.87;;;;;;;18.52;89.72;100389.25;5035125;28;20475;-69
2023/09/19 06:52:22;;;;;;;2.10;0.70;;;;;;;18.66;89.94;100391.50;5035014;28;20497;-69
2023/09/19 06:54:50;;;;;;;2.70;1.00;;;;;;;18.80;89.98;100397.31;5035044;28;20493;-69
2023/09/19 06:57:16;;;;;;;2.30;0.80;;;;;;;18.89;86.74;100397.88;5034804;28;20574;-69
2023/09/19 06:59:44;;;;;;;2.40;0.83;;;;;;;18.94;86.36;100394.03;5035010;28;20490;-69
2023/09/19 07:02:11;;;;;;;2.60;0.90;;;;;;;18.99;86.30;100409.44;5035079;28;20443;-69
2023/09/19 07:04:38;;;;;;;2.10;0.60;;;;;;;19.06;87.04;100412.31;5035037;28;20443;-69
2023/09/19 07:07:04;;;;;;;2.60;0.90;;;;;;;19.06;84.73;100415.88;5034554;28;20451;-69
2023/09/19 07:09:32;;;;;;;2.60;0.80;;;;;;;19.10;84.47;100422.22;5034828;28;20447;-69
2023/09/19 07:11:59;;;;;;;3.80;1.23;;;;;;;19.09;84.01;100430.84;5034533;28;20940;-69
2023/09/19 07:14:26;;;;;;;2.70;1.20;;;;;;;19.01;81.92;100434.59;5035140;28;20456;-69
2023/09/19 07:16:53;;;;;;;2.40;0.87;;;;;;;18.96;83.70;100443.13;5034522;28;20494;-69
2023/09/19 07:19:19;;;;;;;2.40;0.80;;;;;;;18.95;82.45;100455.22;5034571;28;20439;-69
2023/09/19 07:21:47;;;;;;;3.73;1.33;;;;;;;18.97;81.45;100456.47;5034895;28;20852;-69
2023/09/19 07:24:14;;;;;;;2.10;0.70;;;;;;;18.98;80.07;100457.25;5034308;28;20458;-69
2023/09/19 07:26:42;;;;;;;2.70;1.00;;;;;;;18.97;80.28;100455.69;5034432;28;20466;-68
2023/09/19 07:29:08;;;;;;;3.33;1.20;;;;;;;18.90;82.44;100450.81;5034445;28;20527;-68
2023/09/19 07:31:35;;;;;;;2.40;0.80;;;;;;;18.89;84.49;100452.78;5034616;28;20485;-68
2023/09/19 07:34:03;;;;;;;2.77;0.87;;;;;;;18.99;81.57;100450.59;5034196;28;20431;-69
2023/09/19 07:36:30;;;;;;;2.90;1.30;;;;;;;18.98;81.26;100452.56;5034205;28;20572;-69
2023/09/19 07:38:57;;;;;;;2.50;1.00;;;;;;;18.90;79.46;100456.31;5034955;28;20923;-68
2023/09/19 07:41:25;;;;;;;3.33;0.80;;;;;;;18.93;77.99;100463.84;5034592;28;20478;-68
2023/09/19 07:43:53;;;;;;;2.97;1.13;;;;;;;18.93;78.97;100471.28;5034018;28;20929;-68
2023/09/19 07:46:20;;;;;;;5.03;1.00;;;;;;;19.05;77.61;100482.91;5034415;28;20455;-68
2023/09/19 07:48:48;;;;;;;2.50;1.23;;;;;;;19.16;76.55;100480.38;5033798;28;20448;-69
2023/09/19 07:51:15;;;;;;;2.57;1.10;;;;;;;19.13;76.97;100492.09;5033759;28;20449;-71
2023/09/19 07:53:42;;;;;;;3.77;1.40;;;;;;;19.21;76.03;100493.03;5033909;28;20919;-67
2023/09/19 07:56:10;;;;;;;8.10;1.43;;;;;;;19.20;75.40;100497.72;5033756;28;20487;-68
2023/09/19 07:58:41;;;;;;;2.50;1.00;;;;;;;19.09;75.37;100497.50;5034018;28;20443;-68
2023/09/19 08:01:10;;;;;;;3.20;1.10;;;;;;;19.09;75.58;100492.03;5034174;28;20477;-68
2023/09/19 08:03:40;;;;;;;2.40;1.00;;;;;;;18.98;75.36;100499.22;5034124;28;20450;-68
2023/09/19 08:06:07;;;;;;;4.67;1.03;;;;;;;18.98;74.93;100488.25;5033634;28;20546;-68
2023/09/19 08:08:36;;;;;;;4.90;1.33;;;;;;;18.85;77.24;100471.13;5033842;28;20873;-68
2023/09/19 08:11:10;;;;;;;3.37;1.20;;;;;;;18.74;77.39;100489.31;5033512;28;20446;-68
2023/09/19 08:13:37;;;;;;;2.47;1.00;;;;;;;18.67;77.31;100486.38;5033794;28;20419;-68
2023/09/19 08:16:04;;;;;;;2.23;0.87;;;;;;;18.57;78.36;100492.41;5033524;28;20540;-68
2023/09/19 08:18:33;;;;;;;2.80;1.40;;;;;;;18.58;79.00;100494.00;5033579;28;20439;-68
2023/09/19 08:21:01;;;;;;;2.80;1.00;;;;;;;18.57;78.53;100489.69;5033339;28;20446;-68
2023/09/19 08:23:28;;;;;;;3.10;1.00;;;;;;;18.56;79.25;100490.84;5033548;28;20459;-68
2023/09/19 08:25:58;;;;;;;3.90;1.60;;;;;;;18.51;78.33;100499.34;5033550;28;20512;-68
2023/09/19 08:28:24;;;;;;;3.30;1.30;;;;;;;18.49;79.96;100496.16;5034235;28;20530;-68
2023/09/19 08:30:51;;;;;;;3.60;1.17;;;;;;;18.54;79.98;100504.91;5033770;28;20528;-68
2023/09/19 08:33:17;;;;;;;2.87;1.00;;;;;;;18.65;78.15;100505.94;5033480;28;20939;-68
2023/09/19 08:35:45;;;;;;;3.93;1.40;;;;;;;18.73;78.22;100500.66;5033560;28;20513;-68
2023/09/19 08:38:14;;;;;;;2.63;1.20;;;;;;;18.77;78.77;100496.84;5033388;28;20442;-68
2023/09/19 08:40:42;;;;;;;2.90;1.30;;;;;;;18.80;77.29;100507.06;5034167;28;20443;-68
2023/09/19 08:43:09;;;;;;;2.63;0.90;;;;;;;18.88;77.71;100503.34;5033406;28;20432;-68
2023/09/19 08:45:37;;;;;;;3.17;1.37;;;;;;;18.90;76.28;100514.78;5033002;28;20957;-68
2023/09/19 08:48:17;;;;;;;3.97;1.60;;;;;;;18.90;73.54;100511.22;5033099;28;20439;-68
2023/09/19 08:50:51;;;;;;;3.47;1.30;;;;;;;18.96;72.89;100511.75;5033848;28;20462;-68
2023/09/19 08:53:31;;;;;;;2.40;1.07;;;;;;;19.01;72.95;100511.44;5033247;28;20900;-68
2023/09/19 08:56:01;;;;;;;2.20;0.60;;;;;;;18.93;72.74;100510.50;5033255;28;20451;-69
2023/09/19 08:58:35;;;;;;;2.57;1.10;;;;;;;18.89;73.32;100526.88;5032915;28;20443;-69
2023/09/19 09:01:02;;;;;;;3.63;0.90;;;;;;;18.97;71.67;100516.06;5033183;28;20428;-68
2023/09/19 09:03:34;;;;;;;2.50;0.90;;;;;;;19.09;69.96;100524.97;5032922;28;20497;-67
2023/09/19 09:06:02;;;;;;;2.27;0.90;;;;;;;19.10;70.58;100525.75;5033417;28;21034;-68
2023/09/19 09:08:31;;;;;;;3.83;1.43;;;;;;;19.20;71.04;100538.91;5033548;28;20539;-68
2023/09/19 09:10:59;;;;;;;4.80;1.30;;;;;;;19.33;68.57;100534.88;5033165;28;20793;-68
2023/09/19 09:13:27;;;;;;;3.40;1.10;;;;;;;19.33;68.12;100534.09;5033512;28;20443;-68
2023/09/19 09:15:54;;;;;;;3.20;1.10;;;;;;;19.25;69.01;100541.38;5032809;28;20495;-68
2023/09/19 09:18:22;;;;;;;2.33;0.90;;;;;;;19.27;69.29;100536.34;5032786;28;21002;-68
2023/09/19 09:20:49;;;;;;;2.53;1.10;;;;;;;19.33;68.92;100531.34;5033228;28;20501;-68
2023/09/19 09:23:17;;;;;;;3.30;1.30;;;;;;;19.36;68.74;100527.88;5033561;28;20445;-68
2023/09/19 09:25:54;;;;;;;3.70;1.30;;;;;;;19.41;68.75;100533.88;5032652;28;20892;-69
2023/09/19 09:28:22;;;;;;;3.37;1.20;;;;;;;19.51;68.23;100534.44;5032710;28;20427;-68
2023/09/19 09:30:50;;;;;;;2.40;0.97;;;;;;;19.59;67.93;100536.97;5032933;28;20449;-68
2023/09/19 09:33:18;;;;;;;2.90;1.10;;;;;;;19.59;68.04;100530.69;5034451;28;20459;-68
2023/09/19 09:35:52;;;;;;;2.63;1.00;;;;;;;19.55;67.48;100529.81;5036821;28;20447;-68
2023/09/19 09:38:25;;;;;;;2.90;1.17;;;;;;;19.48;66.86;100535.16;5036473;28;20508;-68
2023/09/19 09:40:58;;;;;;;2.63;0.90;;;;;;;19.45;66.86;100535.91;5036561;28;20423;-68
2023/09/19 09:43:30;;;;;;;2.33;0.90;;;;;;;19.21;67.16;100547.94;5036586;28;20423;-68
2023/09/19 09:52:03;;;;;;;2.30;0.97;;;;;;;19.35;68.60;100534.53;5152753;27;20520;-66
2023/09/19 09:54:36;;;;;;;2.20;0.77;;;;;;;19.60;63.86;100543.25;5152538;27;20426;-66
2023/09/19 09:57:14;;;;;;;2.90;0.90;;;;;;;19.72;60.06;100545.88;5152773;27;20496;-69
2023/09/19 09:59:53;;;;;;;3.30;1.13;;;;;;;19.81;58.31;100545.66;5153190;27;20414;-69
2023/09/19 10:02:24;;;;;;;4.27;1.30;;;;;;;19.77;59.44;100550.28;5152932;27;20426;-69
2023/09/19 10:05:10;;;;;;;2.80;0.90;;;;;;;19.81;57.69;100551.16;5152388;27;20418;-69
2023/09/19 10:07:49;;;;;;;2.50;0.90;;;;;;;19.85;59.98;100544.56;5152640;27;20473;-69
2023/09/19 10:10:21;;;;;;;4.53;1.67;;;;;;;19.95;57.96;100537.66;5152411;27;20470;-69
2023/09/19 10:12:48;;;;;;;3.10;1.20;;;;;;;20.03;59.09;100544.88;5152451;27;20475;-69
2023/09/19 10:15:20;;;;;;;2.83;1.07;;;;;;;20.06;60.02;100543.34;5151968;27;20933;-69
2023/09/19 10:17:47;;;;;;;3.60;1.07;;;;;;;20.04;58.41;100537.41;5152480;27;20454;-69
2023/09/19 10:20:24;;;;;;;3.03;1.30;;;;;;;19.95;58.33;100537.66;5152164;27;20430;-69
2023/09/19 10:22:57;;;;;;;3.00;1.30;;;;;;;19.96;58.16;100547.47;5152150;27;20901;-69
2023/09/19 10:25:28;;;;;;;2.40;0.80;;;;;;;19.90;58.66;100547.00;5152471;27;20413;-69
2023/09/19 10:27:57;;;;;;;2.30;0.83;;;;;;;19.93;55.72;100544.69;5152293;27;20425;-69
2023/09/19 10:30:25;;;;;;;2.20;0.80;;;;;;;20.02;57.62;100548.78;5152023;27;20469;-69
2023/09/19 10:33:00;;;;;;;3.00;0.83;;;;;;;20.12;58.56;100545.41;5152407;27;20466;-69
2023/09/19 10:35:27;;;;;;;3.00;0.90;;;;;;;20.20;55.57;100551.84;5151896;27;20417;-70
2023/09/19 10:37:57;;;;;;;5.50;1.30;;;;;;;20.34;55.82;100537.53;5152426;27;20439;-68
2023/09/19 10:40:30;;;;;;;2.60;0.90;;;;;;;20.52;54.90;100548.84;5151904;27;20415;-68
2023/09/19 10:43:02;;;;;;;2.77;1.20;;;;;;;20.70;53.52;100538.91;5151734;27;20755;-68
2023/09/19 10:45:31;;;;;;;5.10;1.07;;;;;;;20.84;53.96;100547.38;5151591;27;20468;-68
2023/09/19 10:47:58;;;;;;;2.57;0.97;;;;;;;20.93;52.45;100541.59;5151872;27;20804;-69
2023/09/19 10:50:26;;;;;;;2.70;1.23;;;;;;;21.05;54.24;100548.84;5151386;27;20513;-69
2023/09/19 10:53:00;;;;;;;3.43;1.40;;;;;;;21.23;53.71;100549.06;5151953;27;20952;-68
2023/09/19 10:55:29;;;;;;;2.40;0.83;;;;;;;21.28;52.34;100552.28;5151910;27;20417;-69
2023/09/19 10:58:11;;;;;;;4.63;1.43;;;;;;;21.32;51.71;100546.84;5151729;27;20440;-68
2023/09/19 11:00:55;;;;;;;2.27;0.83;;;;;;;21.42;51.15;100558.00;5151529;27;20471;-68
2023/09/19 11:03:29;;;;;;;3.90;1.43;;;;;;;21.46;50.62;100552.53;5137800;27;20495;-68
2023/09/19 11:06:09;;;;;;;2.30;0.87;;;;;;;21.53;52.46;100551.84;5137464;27;20615;-68
2023/09/19 11:09:16;;;;;;;4.30;1.00;;;;;;;21.72;50.21;100553.63;5137348;27;20451;-68
2023/09/19 11:11:54;;;;;;;2.97;0.87;;;;;;;21.94;50.50;100576.69;5137176;27;20994;-69
2023/09/19 11:14:44;;;;;;;2.00;0.60;;;;;;;22.36;48.65;100570.81;5137849;27;20434;-68
2023/09/19 11:17:46;;;;;;;3.70;1.40;;;;;;;22.77;46.93;100557.72;5121703;27;20522;-68
2023/09/19 11:20:41;;;;;;;2.60;0.93;;;;;;;23.19;46.27;100574.94;5137713;27;20419;-68
2023/09/19 11:23:26;;;;;;;2.73;0.90;;;;;;;23.44;45.58;100573.09;5137377;27;20419;-68
2023/09/19 11:25:54;;;;;;;4.13;1.00;;;;;;;23.47;43.93;100566.78;5139148;27;20458;-69
2023/09/19 11:28:31;;;;;;;3.47;0.90;;;;;;;23.38;46.38;100567.16;5137223;27;20443;-69
2023/09/19 11:30:59;;;;;;;2.53;0.70;;;;;;;23.60;44.44;100572.78;5137625;27;20898;-69
2023/09/19 11:33:31;;;;;;;2.00;0.60;;;;;;;23.49;46.30;100572.72;5137370;27;20442;-69
2023/09/19 11:36:05;;;;;;;5.50;0.97;;;;;;;23.21;45.25;100576.16;5136997;27;20463;-70
2023/09/19 11:39:07;;;;;;;2.23;0.83;;;;;;;23.63;45.68;100574.75;5137107;27;20462;-69